Weather History for Hereford, TX

Change the Weather History Date:

Tuesday, April 30, 2013

  Actual Average (KAMA) Record (KAMA)
Temperature  
Mean Temperature 76 °F 61 °F  
Max Temperature 96 °F 75 °F 97 °F (2013)
Min Temperature 57 °F 46 °F 23 °F (1907)
Degree Days  
Heating Degree Days 0 6  
Month to date heating degree days 281  
Since 1 July heating degree days 4088  
Cooling Degree Days 12 1  
Month to date cooling degree days 19  
Year to date cooling degree days 21  
Growing Degree Days 26 (Base 50)    
Moisture  
Dew Point 28 °F    
Average Humidity 24    
Maximum Humidity 62    
Minimum Humidity 5    
Precipitation  
Precipitation 0.00 in 0.05 in 2.65 in (1999)
Month to date precipitation 1.40  
Year to date precipitation 4.07  
Snow  
Snow 0.00 in 0.00 in 0.80 in (1909)
Month to date snowfall 0.7  
Since 1 July snowfall 17.6  
Snow Depth -    
Sea Level Pressure  
Sea Level Pressure 29.70 in    
Wind  
Wind Speed 15 mph (SW)    
Max Wind Speed 20 mph    
Max Gust Speed 28 mph    
Visibility 10 miles    
Events      
T = Trace of Precipitation, MM = Missing Value Source: NWS Daily Summary

Daily Weather History Graph

Daily Weather History Graph

Search for Another Location

Airport:

Trip Planner

Search our weather history database for the weather conditions in past years. The results will help you decide how hot, cold, wet, or windy it might be!

Date:

Astronomy

Apr. 30, 2013 Rise Set
Actual Time 6:59 AM CDT 8:33 PM CDT
Civil Twilight 6:32 AM CDT 9:01 PM CDT
Nautical Twilight 6:00 AM CDT 9:33 PM CDT
Astronomical Twilight 5:26 AM CDT 10:07 PM CDT
Moon 12:56 AM CDT (4/30) 11:32 AM CDT (4/30)
Length of Visible Light 14h 28m
Length of Day
13h 34m
Waning Gibbous, 70% of the Moon is Illuminated
Apr 30
Waning Gibbous
May 2
Last Quarter
May 9
New
May 17
First Quarter
May 24
Full

Hourly Weather History & Observations

Time (CDT) Temp. Dew Point Humidity Pressure Visibility Wind Dir Wind Speed Gust Speed Precip Events Conditions
12:15 AM 66.6 °F 31.3 °F 27% 29.73 in 10.0 mi South 17.3 mph - N/A   Clear
12:35 AM 66.2 °F 31.5 °F 27% 29.73 in 10.0 mi South 18.4 mph - N/A   Clear
12:55 AM 64.6 °F 31.6 °F 29% 29.74 in 10.0 mi South 15.0 mph - N/A   Clear
1:15 AM 64.6 °F 32.0 °F 30% 29.74 in 10.0 mi South 18.4 mph 25.3 mph N/A   Clear
1:35 AM 64.4 °F 32.0 °F 30% 29.74 in 10.0 mi South 17.3 mph 24.2 mph N/A   Clear
1:55 AM 64.4 °F 32.5 °F 30% 29.74 in 10.0 mi South 19.6 mph 25.3 mph N/A   Clear
2:15 AM 64.0 °F 33.8 °F 32% 29.75 in 10.0 mi SSW 19.6 mph 24.2 mph N/A   Clear
2:35 AM 63.1 °F 34.3 °F 34% 29.74 in 10.0 mi SSW 19.6 mph 23.0 mph N/A   Clear
2:55 AM 62.6 °F 35.8 °F 37% 29.74 in 10.0 mi SSW 16.1 mph 25.3 mph N/A   Clear
3:15 AM 62.1 °F 37.2 °F 40% 29.74 in 10.0 mi SSW 18.4 mph 25.3 mph N/A   Clear
3:35 AM 61.9 °F 38.8 °F 43% 29.74 in 10.0 mi SSW 17.3 mph 21.9 mph N/A   Clear
3:55 AM 62.2 °F 40.5 °F 45% 29.74 in 10.0 mi SSW 17.3 mph 23.0 mph N/A   Clear
4:15 AM 63.0 °F 41.9 °F 46% 29.74 in 10.0 mi SSW 19.6 mph 25.3 mph N/A   Clear
4:35 AM 62.2 °F 42.8 °F 49% 29.74 in 10.0 mi SSW 15.0 mph 24.2 mph N/A   Clear
4:55 AM 61.7 °F 43.7 °F 52% 29.74 in 10.0 mi SW 16.1 mph 23.0 mph N/A   Clear
5:15 AM 60.8 °F 43.7 °F 53% 29.75 in 10.0 mi SW 12.7 mph 19.6 mph N/A   Clear
5:35 AM 60.1 °F 44.1 °F 55% 29.74 in 10.0 mi SW 12.7 mph - N/A   Clear
5:55 AM 59.7 °F 44.6 °F 57% 29.74 in 10.0 mi SSW 12.7 mph 18.4 mph N/A   Clear
6:15 AM 59.0 °F 44.8 °F 59% 29.74 in 10.0 mi SW 12.7 mph - N/A   Clear
6:35 AM 58.1 °F 44.6 °F 61% 29.74 in 10.0 mi SW 10.4 mph - N/A   Clear
6:55 AM 57.4 °F 44.6 °F 62% 29.75 in 10.0 mi SW 9.2 mph - N/A   Clear
7:15 AM 58.1 °F 44.8 °F 61% 29.75 in 10.0 mi SW 12.7 mph - N/A   Clear
7:35 AM 58.6 °F 45.0 °F 60% 29.75 in 10.0 mi SW 12.7 mph 18.4 mph N/A   Clear
7:55 AM 59.2 °F 45.1 °F 60% 29.75 in 10.0 mi SW 11.5 mph - N/A   Clear
8:15 AM 60.8 °F 45.1 °F 56% 29.75 in 10.0 mi SW 11.5 mph 16.1 mph N/A   Clear
8:35 AM 62.8 °F 45.0 °F 52% 29.74 in 10.0 mi SW 13.8 mph - N/A   Clear
8:55 AM 65.3 °F 44.8 °F 47% 29.75 in 10.0 mi SW 12.7 mph - N/A   Clear
9:15 AM 68.2 °F 43.5 °F 41% 29.75 in 10.0 mi SW 18.4 mph - N/A   Clear
9:35 AM 70.7 °F 41.9 °F 35% 29.74 in 10.0 mi WSW 13.8 mph - N/A   Clear
9:55 AM 73.4 °F 38.7 °F 28% 29.75 in 10.0 mi North - - N/A   Clear
10:15 AM 76.5 °F 34.9 °F 22% 29.74 in 10.0 mi North - - N/A   Clear
10:35 AM 79.3 °F 33.1 °F 19% 29.73 in 10.0 mi West 17.3 mph - N/A   Clear
10:55 AM 82.0 °F 30.2 °F 15% 29.73 in 10.0 mi West 12.7 mph - N/A   Clear
11:15 AM 85.5 °F 27.7 °F 12% 29.72 in 10.0 mi West 13.8 mph 18.4 mph N/A   Clear
11:35 AM 88.7 °F 25.2 °F 10% 29.72 in 10.0 mi WNW 12.7 mph 20.7 mph N/A   Clear
11:55 AM 92.3 °F 21.6 °F 8% 29.72 in 10.0 mi West 10.4 mph 18.4 mph N/A   Clear
12:15 PM 91.9 °F 18.5 °F 7% 29.71 in 10.0 mi West 12.7 mph 20.7 mph N/A   Clear
12:35 PM 91.6 °F 17.8 °F 7% 29.71 in 10.0 mi West 9.2 mph 15.0 mph N/A   Clear
12:55 PM 93.0 °F 17.4 °F 6% 29.70 in 10.0 mi WNW 11.5 mph 24.2 mph N/A   Clear
1:15 PM 93.0 °F 16.9 °F 6% 29.69 in 10.0 mi West 13.8 mph - N/A   Clear
1:35 PM 94.1 °F 17.4 °F 6% 29.69 in 10.0 mi WNW 13.8 mph 24.2 mph N/A   Clear
1:55 PM 92.5 °F 16.9 °F 6% 29.68 in 10.0 mi WNW 15.0 mph 27.6 mph N/A   Clear
2:15 PM 91.8 °F 16.5 °F 6% 29.68 in 10.0 mi West 18.4 mph - N/A   Clear
2:35 PM 94.3 °F 15.6 °F 6% 29.67 in 10.0 mi West 19.6 mph 25.3 mph N/A   Clear
2:55 PM 96.1 °F 16.7 °F 6% 29.67 in 10.0 mi North - - N/A   Clear
3:15 PM 95.5 °F 15.4 °F 5% 29.66 in 10.0 mi West 13.8 mph - N/A   Clear
3:35 PM 94.1 °F 14.9 °F 5% 29.66 in 10.0 mi North - - N/A   Clear
3:55 PM 94.1 °F 14.7 °F 5% 29.65 in 10.0 mi West 12.7 mph 19.6 mph N/A   Clear
4:15 PM 94.1 °F 13.5 °F 5% 29.65 in 10.0 mi West 13.8 mph - N/A   Clear
4:35 PM 95.5 °F 12.0 °F 5% 29.64 in 10.0 mi SW 12.7 mph - N/A   Clear
4:55 PM 95.9 °F 12.4 °F 5% 29.64 in 10.0 mi North - - N/A   Clear
5:15 PM 95.4 °F 13.8 °F 5% 29.63 in 10.0 mi West 17.3 mph - N/A   Clear
5:35 PM 95.0 °F 14.0 °F 5% 29.63 in 10.0 mi West 13.8 mph - N/A   Clear
5:55 PM 95.7 °F 14.4 °F 5% 29.63 in 10.0 mi North - - N/A   Clear
6:15 PM 91.9 °F 13.5 °F 6% 29.63 in 10.0 mi North - - N/A   Clear
6:35 PM 94.3 °F 13.5 °F 5% 29.63 in 10.0 mi North - - N/A   Clear
6:55 PM 90.9 °F 15.4 °F 6% 29.63 in 10.0 mi West 11.5 mph - N/A   Clear
7:15 PM 92.3 °F 13.5 °F 5% 29.63 in 10.0 mi North - - N/A   Clear
7:35 PM 88.9 °F 14.7 °F 6% 29.63 in 10.0 mi WSW 11.5 mph - N/A   Clear
7:55 PM 87.6 °F 15.6 °F 7% 29.64 in 7.0 mi WSW 8.1 mph - N/A   Clear
8:15 PM 84.0 °F 17.4 °F 8% 29.63 in 4.0 mi SW 8.1 mph - N/A   Haze
8:35 PM 80.6 °F 18.5 °F 10% 29.64 in 3.0 mi SW 6.9 mph - N/A   Haze
9:15 PM 74.8 °F 18.1 °F 12% 29.65 in 2.0 mi SSW 6.9 mph - N/A   Haze
9:35 PM 69.3 °F 17.1 °F 14% 29.66 in 7.0 mi South 9.2 mph - N/A   Clear
9:55 PM 69.4 °F 20.1 °F 15% 29.67 in 10.0 mi South 11.5 mph - N/A   Clear
10:15 PM 72.3 °F 22.3 °F 15% 29.69 in 10.0 mi South 11.5 mph 19.6 mph N/A   Clear
10:35 PM 72.9 °F 22.8 °F 15% 29.70 in 10.0 mi South 11.5 mph 16.1 mph N/A   Clear
10:55 PM 74.1 °F 22.3 °F 14% 29.70 in 10.0 mi South 15.0 mph 20.7 mph N/A   Clear
11:15 PM 72.7 °F 22.6 °F 15% 29.71 in 10.0 mi SSW 15.0 mph - N/A   Clear
11:35 PM 73.4 °F 24.3 °F 16% 29.71 in 10.0 mi SSW 16.1 mph 26.5 mph N/A   Clear
11:55 PM 70.9 °F 26.6 °F 19% 29.71 in 10.0 mi SSW 13.8 mph - N/A   Clear